sensor_id;sensor_type;location;lat;lon;timestamp;P1;durP1;ratioP1;P2;durP2;ratioP2
38262;SDS011;24054;50.128;19.730;2023-02-17T00:01:33;15.80;;;12.70;;
38262;SDS011;24054;50.128;19.730;2023-02-17T00:04:00;15.98;;;12.43;;
38262;SDS011;24054;50.128;19.730;2023-02-17T00:06:29;17.05;;;12.35;;
38262;SDS011;24054;50.128;19.730;2023-02-17T00:08:56;16.75;;;12.02;;
38262;SDS011;24054;50.128;19.730;2023-02-17T00:11:24;14.93;;;12.40;;
38262;SDS011;24054;50.128;19.730;2023-02-17T00:13:52;15.63;;;12.40;;
38262;SDS011;24054;50.128;19.730;2023-02-17T00:16:22;16.55;;;12.77;;
38262;SDS011;24054;50.128;19.730;2023-02-17T00:18:51;16.00;;;12.18;;
38262;SDS011;24054;50.128;19.730;2023-02-17T00:21:20;17.30;;;12.77;;
38262;SDS011;24054;50.128;19.730;2023-02-17T00:23:50;14.95;;;12.07;;
38262;SDS011;24054;50.128;19.730;2023-02-17T00:26:17;15.55;;;12.35;;
38262;SDS011;24054;50.128;19.730;2023-02-17T00:28:46;15.40;;;12.25;;
38262;SDS011;24054;50.128;19.730;2023-02-17T00:31:15;14.82;;;12.32;;
38262;SDS011;24054;50.128;19.730;2023-02-17T00:33:43;14.80;;;12.85;;
38262;SDS011;24054;50.128;19.730;2023-02-17T00:36:11;14.18;;;11.98;;
38262;SDS011;24054;50.128;19.730;2023-02-17T00:41:07;16.00;;;12.60;;
38262;SDS011;24054;50.128;19.730;2023-02-17T00:43:34;15.98;;;13.32;;
38262;SDS011;24054;50.128;19.730;2023-02-17T00:46:01;14.57;;;11.57;;
38262;SDS011;24054;50.128;19.730;2023-02-17T00:48:29;14.63;;;12.20;;
38262;SDS011;24054;50.128;19.730;2023-02-17T00:50:56;15.60;;;12.60;;
38262;SDS011;24054;50.128;19.730;2023-02-17T00:53:23;14.93;;;12.55;;
38262;SDS011;24054;50.128;19.730;2023-02-17T00:55:50;15.52;;;12.57;;
38262;SDS011;24054;50.128;19.730;2023-02-17T00:58:19;14.52;;;12.25;;
38262;SDS011;24054;50.128;19.730;2023-02-17T01:00:46;14.73;;;11.85;;
38262;SDS011;24054;50.128;19.730;2023-02-17T01:03:13;14.07;;;12.23;;
38262;SDS011;24054;50.128;19.730;2023-02-17T01:05:40;15.88;;;12.65;;
38262;SDS011;24054;50.128;19.730;2023-02-17T01:08:08;16.58;;;13.27;;
38262;SDS011;24054;50.128;19.730;2023-02-17T01:10:35;15.32;;;12.70;;
38262;SDS011;24054;50.128;19.730;2023-02-17T01:13:03;15.40;;;11.95;;
38262;SDS011;24054;50.128;19.730;2023-02-17T01:15:35;15.82;;;12.43;;
38262;SDS011;24054;50.128;19.730;2023-02-17T01:18:03;15.57;;;12.50;;
38262;SDS011;24054;50.128;19.730;2023-02-17T01:20:30;15.93;;;12.13;;
38262;SDS011;24054;50.128;19.730;2023-02-17T01:23:00;17.30;;;13.48;;
38262;SDS011;24054;50.128;19.730;2023-02-17T01:25:27;17.48;;;12.88;;
38262;SDS011;24054;50.128;19.730;2023-02-17T01:27:54;14.13;;;12.02;;
38262;SDS011;24054;50.128;19.730;2023-02-17T01:30:21;14.35;;;11.77;;
38262;SDS011;24054;50.128;19.730;2023-02-17T01:32:49;17.20;;;13.10;;
38262;SDS011;24054;50.128;19.730;2023-02-17T01:35:16;15.75;;;12.75;;
38262;SDS011;24054;50.128;19.730;2023-02-17T01:37:43;15.95;;;12.95;;
38262;SDS011;24054;50.128;19.730;2023-02-17T01:40:11;15.75;;;12.32;;
38262;SDS011;24054;50.128;19.730;2023-02-17T01:42:39;16.23;;;12.85;;
38262;SDS011;24054;50.128;19.730;2023-02-17T01:48:11;13.88;;;11.77;;
38262;SDS011;24054;50.128;19.730;2023-02-17T01:50:42;14.90;;;11.68;;
38262;SDS011;24054;50.128;19.730;2023-02-17T01:53:13;16.27;;;12.55;;
38262;SDS011;24054;50.128;19.730;2023-02-17T01:55:44;13.63;;;12.23;;
38262;SDS011;24054;50.128;19.730;2023-02-17T01:58:12;16.00;;;12.07;;
38262;SDS011;24054;50.128;19.730;2023-02-17T02:00:43;15.63;;;12.88;;
38262;SDS011;24054;50.128;19.730;2023-02-17T02:03:10;14.15;;;11.75;;
38262;SDS011;24054;50.128;19.730;2023-02-17T02:05:40;14.73;;;12.30;;
38262;SDS011;24054;50.128;19.730;2023-02-17T02:08:08;15.93;;;12.68;;
38262;SDS011;24054;50.128;19.730;2023-02-17T02:10:36;17.10;;;12.68;;
38262;SDS011;24054;50.128;19.730;2023-02-17T02:13:03;17.08;;;12.60;;
38262;SDS011;24054;50.128;19.730;2023-02-17T02:15:32;14.98;;;12.43;;
38262;SDS011;24054;50.128;19.730;2023-02-17T02:18:10;16.33;;;12.73;;
38262;SDS011;24054;50.128;19.730;2023-02-17T02:21:02;14.98;;;11.85;;
38262;SDS011;24054;50.128;19.730;2023-02-17T02:23:55;15.25;;;12.18;;
38262;SDS011;24054;50.128;19.730;2023-02-17T02:29:51;14.68;;;12.38;;
38262;SDS011;24054;50.128;19.730;2023-02-17T02:32:48;15.77;;;12.15;;
38262;SDS011;24054;50.128;19.730;2023-02-17T02:35:24;15.52;;;12.38;;
38262;SDS011;24054;50.128;19.730;2023-02-17T02:37:57;15.10;;;12.32;;
38262;SDS011;24054;50.128;19.730;2023-02-17T02:40:28;15.23;;;12.63;;
38262;SDS011;24054;50.128;19.730;2023-02-17T02:42:59;15.52;;;12.35;;
38262;SDS011;24054;50.128;19.730;2023-02-17T02:45:28;15.85;;;12.32;;
38262;SDS011;24054;50.128;19.730;2023-02-17T02:47:57;14.68;;;11.85;;
38262;SDS011;24054;50.128;19.730;2023-02-17T02:52:57;15.65;;;12.70;;
38262;SDS011;24054;50.128;19.730;2023-02-17T02:55:36;13.23;;;11.05;;
38262;SDS011;24054;50.128;19.730;2023-02-17T02:58:16;14.13;;;11.77;;
38262;SDS011;24054;50.128;19.730;2023-02-17T03:00:48;16.77;;;13.05;;
38262;SDS011;24054;50.128;19.730;2023-02-17T03:03:24;14.90;;;12.60;;
38262;SDS011;24054;50.128;19.730;2023-02-17T03:05:56;13.57;;;11.63;;
38262;SDS011;24054;50.128;19.730;2023-02-17T03:08:30;14.43;;;11.30;;
38262;SDS011;24054;50.128;19.730;2023-02-17T03:11:00;14.43;;;11.77;;
38262;SDS011;24054;50.128;19.730;2023-02-17T03:13:28;14.32;;;11.80;;
38262;SDS011;24054;50.128;19.730;2023-02-17T03:15:57;15.23;;;11.50;;
38262;SDS011;24054;50.128;19.730;2023-02-17T03:18:26;13.55;;;11.75;;
38262;SDS011;24054;50.128;19.730;2023-02-17T03:20:53;16.75;;;12.35;;
38262;SDS011;24054;50.128;19.730;2023-02-17T03:23:22;12.38;;;11.07;;
38262;SDS011;24054;50.128;19.730;2023-02-17T03:25:49;13.80;;;11.70;;
38262;SDS011;24054;50.128;19.730;2023-02-17T03:28:16;16.30;;;12.85;;
38262;SDS011;24054;50.128;19.730;2023-02-17T03:30:43;13.23;;;11.82;;
38262;SDS011;24054;50.128;19.730;2023-02-17T03:33:10;14.32;;;11.98;;
38262;SDS011;24054;50.128;19.730;2023-02-17T03:35:39;14.18;;;11.52;;
38262;SDS011;24054;50.128;19.730;2023-02-17T03:38:06;13.32;;;10.98;;
38262;SDS011;24054;50.128;19.730;2023-02-17T03:40:32;14.38;;;12.05;;
38262;SDS011;24054;50.128;19.730;2023-02-17T03:42:59;13.95;;;10.85;;
38262;SDS011;24054;50.128;19.730;2023-02-17T03:45:26;14.05;;;11.82;;
38262;SDS011;24054;50.128;19.730;2023-02-17T03:47:53;13.98;;;11.27;;
38262;SDS011;24054;50.128;19.730;2023-02-17T03:50:20;15.25;;;12.10;;
38262;SDS011;24054;50.128;19.730;2023-02-17T03:52:49;15.90;;;12.50;;
38262;SDS011;24054;50.128;19.730;2023-02-17T03:55:15;13.38;;;11.48;;
38262;SDS011;24054;50.128;19.730;2023-02-17T03:57:42;12.40;;;11.00;;
38262;SDS011;24054;50.128;19.730;2023-02-17T04:00:10;15.45;;;12.30;;
38262;SDS011;24054;50.128;19.730;2023-02-17T04:02:37;13.52;;;11.35;;
38262;SDS011;24054;50.128;19.730;2023-02-17T04:05:05;12.98;;;11.38;;
38262;SDS011;24054;50.128;19.730;2023-02-17T04:07:33;13.55;;;11.32;;
38262;SDS011;24054;50.128;19.730;2023-02-17T04:10:01;14.43;;;11.65;;
38262;SDS011;24054;50.128;19.730;2023-02-17T04:12:28;15.45;;;12.02;;
38262;SDS011;24054;50.128;19.730;2023-02-17T04:14:55;13.38;;;11.30;;
38262;SDS011;24054;50.128;19.730;2023-02-17T04:17:22;14.57;;;11.25;;
38262;SDS011;24054;50.128;19.730;2023-02-17T04:19:49;12.43;;;11.00;;
38262;SDS011;24054;50.128;19.730;2023-02-17T04:22:16;13.05;;;10.75;;
38262;SDS011;24054;50.128;19.730;2023-02-17T04:24:43;14.18;;;11.48;;
38262;SDS011;24054;50.128;19.730;2023-02-17T04:27:11;13.82;;;11.52;;
38262;SDS011;24054;50.128;19.730;2023-02-17T04:29:38;13.25;;;10.98;;
38262;SDS011;24054;50.128;19.730;2023-02-17T04:32:05;13.43;;;11.02;;
38262;SDS011;24054;50.128;19.730;2023-02-17T04:34:32;13.13;;;10.98;;
38262;SDS011;24054;50.128;19.730;2023-02-17T04:36:59;13.95;;;11.10;;
38262;SDS011;24054;50.128;19.730;2023-02-17T04:39:26;12.35;;;10.57;;
38262;SDS011;24054;50.128;19.730;2023-02-17T04:41:53;13.20;;;11.07;;
38262;SDS011;24054;50.128;19.730;2023-02-17T04:44:21;12.82;;;10.60;;
38262;SDS011;24054;50.128;19.730;2023-02-17T04:46:48;14.57;;;11.00;;
38262;SDS011;24054;50.128;19.730;2023-02-17T04:49:15;14.00;;;11.05;;
38262;SDS011;24054;50.128;19.730;2023-02-17T04:51:42;13.15;;;11.00;;
38262;SDS011;24054;50.128;19.730;2023-02-17T04:54:09;14.50;;;11.35;;
38262;SDS011;24054;50.128;19.730;2023-02-17T04:56:36;13.48;;;10.82;;
38262;SDS011;24054;50.128;19.730;2023-02-17T04:59:03;12.40;;;11.10;;
38262;SDS011;24054;50.128;19.730;2023-02-17T05:01:31;13.27;;;11.55;;
38262;SDS011;24054;50.128;19.730;2023-02-17T05:03:58;12.60;;;10.88;;
38262;SDS011;24054;50.128;19.730;2023-02-17T05:06:25;12.20;;;9.90;;
38262;SDS011;24054;50.128;19.730;2023-02-17T05:08:52;12.55;;;10.13;;
38262;SDS011;24054;50.128;19.730;2023-02-17T05:11:19;13.02;;;10.45;;
38262;SDS011;24054;50.128;19.730;2023-02-17T05:13:46;11.75;;;9.85;;
38262;SDS011;24054;50.128;19.730;2023-02-17T05:16:13;13.07;;;11.00;;
38262;SDS011;24054;50.128;19.730;2023-02-17T05:18:42;13.50;;;10.77;;
38262;SDS011;24054;50.128;19.730;2023-02-17T05:21:09;12.90;;;10.55;;
38262;SDS011;24054;50.128;19.730;2023-02-17T05:23:36;13.10;;;10.60;;
38262;SDS011;24054;50.128;19.730;2023-02-17T05:26:05;12.27;;;10.45;;
38262;SDS011;24054;50.128;19.730;2023-02-17T05:28:33;13.30;;;11.30;;
38262;SDS011;24054;50.128;19.730;2023-02-17T05:31:00;12.75;;;10.65;;
38262;SDS011;24054;50.128;19.730;2023-02-17T05:33:27;12.50;;;10.38;;
38262;SDS011;24054;50.128;19.730;2023-02-17T05:35:59;13.48;;;11.45;;
38262;SDS011;24054;50.128;19.730;2023-02-17T05:38:27;13.18;;;10.82;;
38262;SDS011;24054;50.128;19.730;2023-02-17T05:40:54;12.18;;;10.55;;
38262;SDS011;24054;50.128;19.730;2023-02-17T05:43:21;12.50;;;10.55;;
38262;SDS011;24054;50.128;19.730;2023-02-17T05:45:48;12.82;;;10.70;;
38262;SDS011;24054;50.128;19.730;2023-02-17T05:48:15;12.63;;;10.32;;
38262;SDS011;24054;50.128;19.730;2023-02-17T05:50:42;11.40;;;10.18;;
38262;SDS011;24054;50.128;19.730;2023-02-17T05:53:10;11.43;;;10.00;;
38262;SDS011;24054;50.128;19.730;2023-02-17T05:55:37;12.70;;;10.02;;
38262;SDS011;24054;50.128;19.730;2023-02-17T05:58:05;11.20;;;10.07;;
38262;SDS011;24054;50.128;19.730;2023-02-17T06:00:32;12.27;;;10.57;;
38262;SDS011;24054;50.128;19.730;2023-02-17T06:02:59;11.27;;;10.07;;
38262;SDS011;24054;50.128;19.730;2023-02-17T06:05:26;12.63;;;10.80;;
38262;SDS011;24054;50.128;19.730;2023-02-17T06:07:53;13.23;;;10.65;;
38262;SDS011;24054;50.128;19.730;2023-02-17T06:10:21;11.82;;;10.30;;
38262;SDS011;24054;50.128;19.730;2023-02-17T06:12:48;11.63;;;9.80;;
38262;SDS011;24054;50.128;19.730;2023-02-17T06:15:15;9.95;;;8.88;;
38262;SDS011;24054;50.128;19.730;2023-02-17T06:17:45;11.50;;;8.82;;
38262;SDS011;24054;50.128;19.730;2023-02-17T06:20:12;10.90;;;8.93;;
38262;SDS011;24054;50.128;19.730;2023-02-17T06:22:43;11.98;;;9.88;;
38262;SDS011;24054;50.128;19.730;2023-02-17T06:25:10;11.68;;;9.43;;
38262;SDS011;24054;50.128;19.730;2023-02-17T06:27:38;11.05;;;9.68;;
38262;SDS011;24054;50.128;19.730;2023-02-17T06:30:07;10.82;;;9.60;;
38262;SDS011;24054;50.128;19.730;2023-02-17T06:32:35;9.55;;;8.48;;
38262;SDS011;24054;50.128;19.730;2023-02-17T06:35:01;10.90;;;9.27;;
38262;SDS011;24054;50.128;19.730;2023-02-17T06:37:28;10.23;;;9.05;;
38262;SDS011;24054;50.128;19.730;2023-02-17T06:39:56;11.25;;;8.75;;
38262;SDS011;24054;50.128;19.730;2023-02-17T06:42:23;10.55;;;8.90;;
38262;SDS011;24054;50.128;19.730;2023-02-17T06:44:51;10.77;;;9.10;;
38262;SDS011;24054;50.128;19.730;2023-02-17T06:47:21;9.75;;;8.30;;
38262;SDS011;24054;50.128;19.730;2023-02-17T06:49:48;10.50;;;8.40;;
38262;SDS011;24054;50.128;19.730;2023-02-17T06:52:14;10.40;;;8.80;;
38262;SDS011;24054;50.128;19.730;2023-02-17T06:54:41;8.85;;;7.90;;
38262;SDS011;24054;50.128;19.730;2023-02-17T06:57:08;9.75;;;8.38;;
38262;SDS011;24054;50.128;19.730;2023-02-17T06:59:35;9.68;;;8.60;;
38262;SDS011;24054;50.128;19.730;2023-02-17T07:02:04;9.82;;;8.38;;
38262;SDS011;24054;50.128;19.730;2023-02-17T07:04:31;9.38;;;8.23;;
38262;SDS011;24054;50.128;19.730;2023-02-17T07:06:58;9.77;;;7.95;;
38262;SDS011;24054;50.128;19.730;2023-02-17T07:09:25;9.27;;;8.07;;
38262;SDS011;24054;50.128;19.730;2023-02-17T07:11:52;8.98;;;7.90;;
38262;SDS011;24054;50.128;19.730;2023-02-17T07:14:20;10.52;;;8.40;;
38262;SDS011;24054;50.128;19.730;2023-02-17T07:16:47;10.50;;;8.10;;
38262;SDS011;24054;50.128;19.730;2023-02-17T07:19:15;8.85;;;7.65;;
38262;SDS011;24054;50.128;19.730;2023-02-17T07:21:45;8.75;;;7.57;;
38262;SDS011;24054;50.128;19.730;2023-02-17T07:24:12;9.45;;;8.23;;
38262;SDS011;24054;50.128;19.730;2023-02-17T07:26:39;8.82;;;7.68;;
38262;SDS011;24054;50.128;19.730;2023-02-17T07:29:07;8.98;;;7.38;;
38262;SDS011;24054;50.128;19.730;2023-02-17T07:31:34;9.35;;;8.25;;
38262;SDS011;24054;50.128;19.730;2023-02-17T07:34:02;9.82;;;7.85;;
38262;SDS011;24054;50.128;19.730;2023-02-17T07:36:31;12.13;;;7.55;;
38262;SDS011;24054;50.128;19.730;2023-02-17T07:38:58;10.07;;;7.72;;
38262;SDS011;24054;50.128;19.730;2023-02-17T07:41:25;9.77;;;7.95;;
38262;SDS011;24054;50.128;19.730;2023-02-17T07:46:22;10.70;;;8.25;;
38262;SDS011;24054;50.128;19.730;2023-02-17T07:48:49;10.25;;;8.20;;
38262;SDS011;24054;50.128;19.730;2023-02-17T07:51:17;10.18;;;8.15;;
38262;SDS011;24054;50.128;19.730;2023-02-17T07:53:47;8.68;;;7.35;;
38262;SDS011;24054;50.128;19.730;2023-02-17T07:56:15;9.55;;;8.43;;
38262;SDS011;24054;50.128;19.730;2023-02-17T07:58:44;9.95;;;8.35;;
38262;SDS011;24054;50.128;19.730;2023-02-17T08:01:12;9.70;;;7.25;;
38262;SDS011;24054;50.128;19.730;2023-02-17T08:06:08;9.50;;;7.70;;
38262;SDS011;24054;50.128;19.730;2023-02-17T08:08:35;9.30;;;6.65;;
38262;SDS011;24054;50.128;19.730;2023-02-17T08:11:21;10.25;;;7.65;;
38262;SDS011;24054;50.128;19.730;2023-02-17T08:14:05;11.15;;;8.05;;
38262;SDS011;24054;50.128;19.730;2023-02-17T08:16:32;14.23;;;7.32;;
38262;SDS011;24054;50.128;19.730;2023-02-17T08:18:59;8.93;;;7.18;;
38262;SDS011;24054;50.128;19.730;2023-02-17T08:21:26;9.77;;;7.30;;
38262;SDS011;24054;50.128;19.730;2023-02-17T08:23:54;11.85;;;6.97;;
38262;SDS011;24054;50.128;19.730;2023-02-17T08:26:23;10.10;;;7.95;;
38262;SDS011;24054;50.128;19.730;2023-02-17T08:28:50;8.63;;;7.00;;
38262;SDS011;24054;50.128;19.730;2023-02-17T08:31:18;9.63;;;7.40;;
38262;SDS011;24054;50.128;19.730;2023-02-17T08:33:46;9.57;;;7.47;;
38262;SDS011;24054;50.128;19.730;2023-02-17T08:36:13;8.18;;;6.93;;
38262;SDS011;24054;50.128;19.730;2023-02-17T08:38:41;9.32;;;7.28;;
38262;SDS011;24054;50.128;19.730;2023-02-17T08:41:12;11.73;;;7.07;;
38262;SDS011;24054;50.128;19.730;2023-02-17T08:46:10;11.20;;;6.68;;
38262;SDS011;24054;50.128;19.730;2023-02-17T08:48:38;9.05;;;6.90;;
38262;SDS011;24054;50.128;19.730;2023-02-17T08:51:05;10.55;;;7.65;;
38262;SDS011;24054;50.128;19.730;2023-02-17T08:53:33;9.63;;;6.93;;
38262;SDS011;24054;50.128;19.730;2023-02-17T08:56:00;9.25;;;7.07;;
38262;SDS011;24054;50.128;19.730;2023-02-17T08:58:27;9.15;;;6.88;;
38262;SDS011;24054;50.128;19.730;2023-02-17T09:00:56;9.63;;;6.65;;
38262;SDS011;24054;50.128;19.730;2023-02-17T09:03:26;10.45;;;6.53;;
38262;SDS011;24054;50.128;19.730;2023-02-17T09:05:56;7.80;;;6.75;;
38262;SDS011;24054;50.128;19.730;2023-02-17T09:08:24;8.68;;;6.95;;
38262;SDS011;24054;50.128;19.730;2023-02-17T09:10:51;7.25;;;6.50;;
38262;SDS011;24054;50.128;19.730;2023-02-17T09:13:18;7.47;;;6.53;;
38262;SDS011;24054;50.128;19.730;2023-02-17T09:15:45;7.63;;;6.65;;
38262;SDS011;24054;50.128;19.730;2023-02-17T09:18:14;8.43;;;6.32;;
38262;SDS011;24054;50.128;19.730;2023-02-17T09:20:41;8.07;;;6.63;;
38262;SDS011;24054;50.128;19.730;2023-02-17T09:23:09;9.18;;;6.43;;
38262;SDS011;24054;50.128;19.730;2023-02-17T09:25:36;8.15;;;6.20;;
38262;SDS011;24054;50.128;19.730;2023-02-17T09:28:05;8.48;;;6.57;;
38262;SDS011;24054;50.128;19.730;2023-02-17T09:30:32;9.40;;;6.78;;
38262;SDS011;24054;50.128;19.730;2023-02-17T09:33:03;8.82;;;6.55;;
38262;SDS011;24054;50.128;19.730;2023-02-17T09:35:32;8.82;;;6.80;;
38262;SDS011;24054;50.128;19.730;2023-02-17T09:38:03;8.68;;;6.32;;
38262;SDS011;24054;50.128;19.730;2023-02-17T09:40:33;8.63;;;6.90;;
38262;SDS011;24054;50.128;19.730;2023-02-17T09:43:08;6.63;;;5.93;;
38262;SDS011;24054;50.128;19.730;2023-02-17T09:45:39;8.32;;;6.15;;
38262;SDS011;24054;50.128;19.730;2023-02-17T09:48:09;9.10;;;6.82;;
38262;SDS011;24054;50.128;19.730;2023-02-17T09:50:41;7.90;;;6.05;;
38262;SDS011;24054;50.128;19.730;2023-02-17T09:53:16;8.52;;;6.53;;
38262;SDS011;24054;50.128;19.730;2023-02-17T09:55:51;7.97;;;6.40;;
38262;SDS011;24054;50.128;19.730;2023-02-17T09:58:21;7.95;;;6.10;;
38262;SDS011;24054;50.128;19.730;2023-02-17T10:00:52;7.20;;;6.13;;
38262;SDS011;24054;50.128;19.730;2023-02-17T10:03:23;6.90;;;6.20;;
38262;SDS011;24054;50.128;19.730;2023-02-17T10:05:59;8.20;;;6.22;;
38262;SDS011;24054;50.128;19.730;2023-02-17T10:08:35;9.65;;;5.88;;
38262;SDS011;24054;50.128;19.730;2023-02-17T10:11:09;7.63;;;6.50;;
38262;SDS011;24054;50.128;19.730;2023-02-17T10:13:44;8.48;;;6.25;;
38262;SDS011;24054;50.128;19.730;2023-02-17T10:16:14;7.82;;;5.88;;
38262;SDS011;24054;50.128;19.730;2023-02-17T10:18:48;6.43;;;5.40;;
38262;SDS011;24054;50.128;19.730;2023-02-17T10:21:24;7.38;;;5.68;;
38262;SDS011;24054;50.128;19.730;2023-02-17T10:23:53;6.93;;;5.72;;
38262;SDS011;24054;50.128;19.730;2023-02-17T10:26:40;6.60;;;5.88;;
38262;SDS011;24054;50.128;19.730;2023-02-17T10:29:19;6.95;;;5.80;;
38262;SDS011;24054;50.128;19.730;2023-02-17T10:31:59;6.95;;;5.55;;
38262;SDS011;24054;50.128;19.730;2023-02-17T10:34:34;6.68;;;5.20;;
38262;SDS011;24054;50.128;19.730;2023-02-17T10:37:04;6.75;;;5.75;;
38262;SDS011;24054;50.128;19.730;2023-02-17T10:39:43;6.90;;;5.60;;
38262;SDS011;24054;50.128;19.730;2023-02-17T10:42:15;6.30;;;5.30;;
38262;SDS011;24054;50.128;19.730;2023-02-17T10:44:47;7.32;;;5.43;;
38262;SDS011;24054;50.128;19.730;2023-02-17T10:47:16;7.88;;;5.18;;
38262;SDS011;24054;50.128;19.730;2023-02-17T10:49:45;6.40;;;5.40;;
38262;SDS011;24054;50.128;19.730;2023-02-17T10:52:19;6.07;;;5.20;;
38262;SDS011;24054;50.128;19.730;2023-02-17T10:54:49;6.05;;;5.13;;
38262;SDS011;24054;50.128;19.730;2023-02-17T10:57:19;6.20;;;5.28;;
38262;SDS011;24054;50.128;19.730;2023-02-17T10:59:49;5.75;;;4.80;;
38262;SDS011;24054;50.128;19.730;2023-02-17T11:02:17;8.27;;;5.18;;
38262;SDS011;24054;50.128;19.730;2023-02-17T11:04:46;8.15;;;5.00;;
38262;SDS011;24054;50.128;19.730;2023-02-17T11:07:17;6.38;;;5.07;;
38262;SDS011;24054;50.128;19.730;2023-02-17T11:09:57;8.07;;;5.25;;
38262;SDS011;24054;50.128;19.730;2023-02-17T11:12:27;6.28;;;5.20;;
38262;SDS011;24054;50.128;19.730;2023-02-17T11:14:58;9.88;;;5.00;;
38262;SDS011;24054;50.128;19.730;2023-02-17T11:17:30;6.18;;;4.53;;
38262;SDS011;24054;50.128;19.730;2023-02-17T11:20:02;5.85;;;4.38;;
38262;SDS011;24054;50.128;19.730;2023-02-17T11:22:34;7.50;;;5.13;;
38262;SDS011;24054;50.128;19.730;2023-02-17T11:25:06;7.57;;;5.22;;
38262;SDS011;24054;50.128;19.730;2023-02-17T11:27:49;5.70;;;5.03;;
38262;SDS011;24054;50.128;19.730;2023-02-17T11:30:17;5.38;;;4.60;;
38262;SDS011;24054;50.128;19.730;2023-02-17T11:32:45;5.93;;;4.73;;
38262;SDS011;24054;50.128;19.730;2023-02-17T11:35:19;6.72;;;4.47;;
38262;SDS011;24054;50.128;19.730;2023-02-17T11:37:51;5.85;;;4.38;;
38262;SDS011;24054;50.128;19.730;2023-02-17T11:40:26;8.50;;;5.18;;
38262;SDS011;24054;50.128;19.730;2023-02-17T11:42:54;8.25;;;4.35;;
38262;SDS011;24054;50.128;19.730;2023-02-17T11:45:22;5.68;;;4.82;;
38262;SDS011;24054;50.128;19.730;2023-02-17T11:47:55;6.30;;;4.32;;
38262;SDS011;24054;50.128;19.730;2023-02-17T11:50:37;6.20;;;4.55;;
38262;SDS011;24054;50.128;19.730;2023-02-17T11:53:21;6.13;;;4.50;;
38262;SDS011;24054;50.128;19.730;2023-02-17T11:56:03;6.20;;;4.85;;
38262;SDS011;24054;50.128;19.730;2023-02-17T11:58:45;5.70;;;4.20;;
38262;SDS011;24054;50.128;19.730;2023-02-17T12:01:37;6.82;;;4.43;;
38262;SDS011;24054;50.128;19.730;2023-02-17T12:04:24;6.75;;;4.15;;
38262;SDS011;24054;50.128;19.730;2023-02-17T12:07:00;4.93;;;4.20;;
38262;SDS011;24054;50.128;19.730;2023-02-17T12:09:50;7.90;;;4.50;;
38262;SDS011;24054;50.128;19.730;2023-02-17T12:12:28;5.35;;;4.25;;
38262;SDS011;24054;50.128;19.730;2023-02-17T12:15:05;4.32;;;3.83;;
38262;SDS011;24054;50.128;19.730;2023-02-17T12:17:48;5.40;;;4.38;;
38262;SDS011;24054;50.128;19.730;2023-02-17T12:20:38;7.13;;;4.55;;
38262;SDS011;24054;50.128;19.730;2023-02-17T12:23:24;5.85;;;3.88;;
38262;SDS011;24054;50.128;19.730;2023-02-17T12:26:04;4.80;;;3.92;;
38262;SDS011;24054;50.128;19.730;2023-02-17T12:28:40;4.30;;;3.72;;
38262;SDS011;24054;50.128;19.730;2023-02-17T12:31:20;4.85;;;3.70;;
38262;SDS011;24054;50.128;19.730;2023-02-17T12:34:11;5.75;;;3.80;;
38262;SDS011;24054;50.128;19.730;2023-02-17T12:36:43;4.75;;;3.83;;
38262;SDS011;24054;50.128;19.730;2023-02-17T12:39:12;4.80;;;3.75;;
38262;SDS011;24054;50.128;19.730;2023-02-17T12:41:46;4.68;;;3.80;;
38262;SDS011;24054;50.128;19.730;2023-02-17T12:44:17;5.30;;;3.67;;
38262;SDS011;24054;50.128;19.730;2023-02-17T12:46:48;5.13;;;3.67;;
38262;SDS011;24054;50.128;19.730;2023-02-17T12:49:18;5.13;;;3.88;;
38262;SDS011;24054;50.128;19.730;2023-02-17T12:51:49;5.15;;;3.60;;
38262;SDS011;24054;50.128;19.730;2023-02-17T12:54:19;7.43;;;5.78;;
38262;SDS011;24054;50.128;19.730;2023-02-17T12:57:10;6.90;;;5.57;;
38262;SDS011;24054;50.128;19.730;2023-02-17T12:59:43;8.10;;;5.03;;
38262;SDS011;24054;50.128;19.730;2023-02-17T13:02:12;5.55;;;4.50;;
38262;SDS011;24054;50.128;19.730;2023-02-17T13:04:41;6.10;;;4.57;;
38262;SDS011;24054;50.128;19.730;2023-02-17T13:07:19;5.43;;;4.30;;
38262;SDS011;24054;50.128;19.730;2023-02-17T13:10:03;5.63;;;4.15;;
38262;SDS011;24054;50.128;19.730;2023-02-17T13:12:38;5.10;;;4.30;;
38262;SDS011;24054;50.128;19.730;2023-02-17T13:17:57;4.35;;;3.75;;
38262;SDS011;24054;50.128;19.730;2023-02-17T13:20:37;4.72;;;3.90;;
38262;SDS011;24054;50.128;19.730;2023-02-17T13:23:11;6.40;;;4.10;;
38262;SDS011;24054;50.128;19.730;2023-02-17T13:25:40;4.70;;;3.80;;
38262;SDS011;24054;50.128;19.730;2023-02-17T13:28:31;4.40;;;3.92;;
38262;SDS011;24054;50.128;19.730;2023-02-17T13:31:11;4.43;;;3.83;;
38262;SDS011;24054;50.128;19.730;2023-02-17T13:33:45;5.75;;;4.10;;
38262;SDS011;24054;50.128;19.730;2023-02-17T13:36:15;5.25;;;3.83;;
38262;SDS011;24054;50.128;19.730;2023-02-17T13:38:55;5.78;;;4.03;;
38262;SDS011;24054;50.128;19.730;2023-02-17T13:41:26;5.40;;;3.92;;
38262;SDS011;24054;50.128;19.730;2023-02-17T13:43:55;6.68;;;4.30;;
38262;SDS011;24054;50.128;19.730;2023-02-17T13:49:01;4.57;;;3.75;;
38262;SDS011;24054;50.128;19.730;2023-02-17T13:51:31;5.40;;;4.13;;
38262;SDS011;24054;50.128;19.730;2023-02-17T13:54:05;6.20;;;3.97;;
38262;SDS011;24054;50.128;19.730;2023-02-17T13:56:38;5.53;;;3.65;;
38262;SDS011;24054;50.128;19.730;2023-02-17T13:59:10;4.28;;;3.70;;
38262;SDS011;24054;50.128;19.730;2023-02-17T14:01:42;5.28;;;3.65;;
38262;SDS011;24054;50.128;19.730;2023-02-17T14:04:16;5.65;;;4.25;;
38262;SDS011;24054;50.128;19.730;2023-02-17T14:06:47;4.95;;;3.60;;
38262;SDS011;24054;50.128;19.730;2023-02-17T14:09:19;5.00;;;3.83;;
38262;SDS011;24054;50.128;19.730;2023-02-17T14:11:48;4.82;;;3.45;;
38262;SDS011;24054;50.128;19.730;2023-02-17T14:14:18;7.57;;;4.22;;
38262;SDS011;24054;50.128;19.730;2023-02-17T14:16:55;4.05;;;3.38;;
38262;SDS011;24054;50.128;19.730;2023-02-17T14:19:23;5.17;;;3.87;;
38262;SDS011;24054;50.128;19.730;2023-02-17T14:21:57;5.03;;;3.67;;
38262;SDS011;24054;50.128;19.730;2023-02-17T14:24:28;4.38;;;3.72;;
38262;SDS011;24054;50.128;19.730;2023-02-17T14:26:58;4.20;;;3.40;;
38262;SDS011;24054;50.128;19.730;2023-02-17T14:29:38;3.67;;;3.10;;
38262;SDS011;24054;50.128;19.730;2023-02-17T14:32:06;4.90;;;3.78;;
38262;SDS011;24054;50.128;19.730;2023-02-17T14:34:48;5.10;;;4.10;;
38262;SDS011;24054;50.128;19.730;2023-02-17T14:37:16;6.85;;;3.15;;
38262;SDS011;24054;50.128;19.730;2023-02-17T14:39:46;5.45;;;3.70;;
38262;SDS011;24054;50.128;19.730;2023-02-17T14:42:15;4.07;;;3.60;;
38262;SDS011;24054;50.128;19.730;2023-02-17T14:44:44;3.85;;;3.47;;
38262;SDS011;24054;50.128;19.730;2023-02-17T14:49:38;4.53;;;3.28;;
38262;SDS011;24054;50.128;19.730;2023-02-17T14:52:11;4.32;;;3.20;;
38262;SDS011;24054;50.128;19.730;2023-02-17T14:57:12;4.05;;;3.58;;
38262;SDS011;24054;50.128;19.730;2023-02-17T15:02:12;4.10;;;3.13;;
38262;SDS011;24054;50.128;19.730;2023-02-17T15:04:40;4.85;;;3.63;;
38262;SDS011;24054;50.128;19.730;2023-02-17T15:07:08;4.13;;;3.53;;
38262;SDS011;24054;50.128;19.730;2023-02-17T15:09:38;4.72;;;3.22;;
38262;SDS011;24054;50.128;19.730;2023-02-17T15:12:08;4.82;;;3.70;;
38262;SDS011;24054;50.128;19.730;2023-02-17T15:14:39;7.57;;;3.95;;